Time;durP1;ratioP1;P1;durP2;ratioP2;P2;SDS_P1;SDS_P2;PMS_P1;PMS_P2;Temp;Humidity;BMP_temperature;BMP_pressure;BME280_temperature;BME280_humidity;BME280_pressure;Samples;Min_cycle;Max_cycle;Signal;HPM_P1;HPM_P2
2021/12/11 00:00:17;;;;;;;31.53;15.87;;;-1.00;99.90;;;;;;4699691;30;20692;-81
2021/12/11 00:02:44;;;;;;;24.90;14.87;;;-1.00;99.90;;;;;;4708541;30;20312;-82
2021/12/11 00:05:13;;;;;;;26.67;15.43;;;-1.00;99.90;;;;;;4703341;30;20307;-82
2021/12/11 00:07:39;;;;;;;28.13;15.17;;;-1.00;99.90;;;;;;4706471;30;20288;-82
2021/12/11 00:10:21;;;;;;;27.43;15.03;;;-1.00;99.90;;;;;;4706761;30;20302;-81
2021/12/11 00:12:53;;;;;;;32.05;15.25;;;-1.00;99.90;;;;;;4703396;30;20060;-82
2021/12/11 00:15:24;;;;;;;28.67;16.50;;;-1.00;99.90;;;;;;4705434;30;20049;-82
2021/12/11 00:18:05;;;;;;;26.70;14.47;;;-1.00;99.90;;;;;;4700479;30;20056;-82
2021/12/11 00:20:36;;;;;;;28.95;15.63;;;-1.10;99.90;;;;;;4705057;30;20297;-82
2021/12/11 00:23:04;;;;;;;30.13;16.93;;;-1.10;99.90;;;;;;4713424;30;20135;-81
2021/12/11 00:25:30;;;;;;;26.60;15.60;;;-1.20;99.90;;;;;;4696869;30;20812;-80
2021/12/11 00:28:04;;;;;;;31.87;16.40;;;-1.20;99.90;;;;;;4707288;30;20284;-80
2021/12/11 00:30:35;;;;;;;31.93;17.10;;;-1.20;99.90;;;;;;4689262;30;20810;-80
2021/12/11 00:33:11;;;;;;;30.93;16.63;;;-1.20;99.90;;;;;;4690608;30;20889;-80
2021/12/11 00:35:37;;;;;;;27.90;16.53;;;-1.20;99.90;;;;;;4702935;30;20304;-80
2021/12/11 00:38:11;;;;;;;27.27;15.70;;;-1.20;99.90;;;;;;4709816;30;20409;-80
2021/12/11 00:40:40;;;;;;;29.27;16.17;;;-1.20;99.90;;;;;;4706762;30;20291;-80
2021/12/11 00:43:08;;;;;;;27.83;16.87;;;-1.20;99.90;;;;;;4682384;30;20443;-80
2021/12/11 00:45:39;;;;;;;26.93;15.67;;;-1.20;99.90;;;;;;4682834;30;20313;-80
2021/12/11 00:48:09;;;;;;;27.40;15.55;;;-1.20;99.90;;;;;;4697539;30;20290;-80
2021/12/11 00:50:43;;;;;;;25.97;15.60;;;-1.20;99.90;;;;;;4690299;30;20053;-80
2021/12/11 00:53:16;;;;;;;29.40;14.93;;;-1.10;99.90;;;;;;4709219;30;20296;-80
2021/12/11 00:55:45;;;;;;;26.20;14.80;;;-1.20;99.90;;;;;;4702442;30;20306;-80
2021/12/11 00:58:18;;;;;;;27.20;15.60;;;-1.20;99.90;;;;;;4684697;30;20407;-80
2021/12/11 01:01:00;;;;;;;26.83;14.73;;;-1.20;99.90;;;;;;4703303;30;20296;-80
2021/12/11 01:03:38;;;;;;;26.27;13.30;;;-1.20;99.90;;;;;;4674922;30;20316;-80
2021/12/11 01:06:29;;;;;;;30.57;14.27;;;-1.30;99.90;;;;;;4691961;30;20522;-82
2021/12/11 01:09:00;;;;;;;27.43;14.87;;;-1.30;99.90;;;;;;4699530;30;20856;-82
2021/12/11 01:11:47;;;;;;;24.35;13.75;;;-1.30;99.90;;;;;;4705030;30;20292;-82
2021/12/11 01:14:24;;;;;;;25.20;13.80;;;-1.30;99.90;;;;;;4700497;30;20574;-82
2021/12/11 01:17:22;;;;;;;28.13;15.60;;;-1.30;99.90;;;;;;4696772;30;20288;-82
2021/12/11 01:19:51;;;;;;;25.07;13.90;;;-1.20;99.90;;;;;;4685886;30;20809;-82
2021/12/11 01:22:35;;;;;;;26.17;14.70;;;-1.30;99.90;;;;;;4707796;30;20323;-82
2021/12/11 01:25:29;;;;;;;24.60;13.53;;;-1.30;99.90;;;;;;4704428;30;20376;-82
2021/12/11 01:27:59;;;;;;;27.63;15.77;;;-1.30;99.90;;;;;;4692484;30;20793;-82
2021/12/11 01:30:29;;;;;;;25.43;14.13;;;-1.30;99.90;;;;;;4706602;30;20372;-83
2021/12/11 01:32:55;;;;;;;27.83;15.03;;;-1.30;99.90;;;;;;4702361;30;20317;-83
2021/12/11 01:35:23;;;;;;;26.63;14.30;;;-1.30;99.90;;;;;;4707409;30;20347;-82
2021/12/11 01:37:58;;;;;;;26.67;14.83;;;-1.30;99.90;;;;;;4709037;30;20335;-82
2021/12/11 01:40:27;;;;;;;28.97;15.77;;;-1.30;99.90;;;;;;4710698;30;20287;-83
2021/12/11 01:42:53;;;;;;;27.87;14.97;;;-1.30;99.90;;;;;;4709032;30;20361;-83
2021/12/11 01:45:19;;;;;;;26.13;14.87;;;-1.30;99.90;;;;;;4708628;30;20296;-82
2021/12/11 01:47:47;;;;;;;23.20;14.23;;;-1.30;99.90;;;;;;4704248;30;20060;-83
2021/12/11 01:50:25;;;;;;;23.17;13.73;;;-1.30;99.90;;;;;;4693306;30;20354;-82
2021/12/11 01:52:50;;;;;;;25.77;14.47;;;-1.40;99.90;;;;;;4693415;30;20319;-83
2021/12/11 01:55:56;;;;;;;27.00;14.47;;;-1.40;99.90;;;;;;4711122;30;20327;-83
2021/12/11 01:58:44;;;;;;;26.20;14.63;;;-1.40;99.90;;;;;;4687734;30;20404;-83
2021/12/11 02:01:22;;;;;;;28.63;14.77;;;-1.40;99.90;;;;;;4692048;30;20380;-83
2021/12/11 02:03:50;;;;;;;22.13;13.50;;;-1.40;99.90;;;;;;4702678;30;20805;-83
2021/12/11 02:06:16;;;;;;;27.17;14.53;;;-1.40;99.90;;;;;;4698314;30;20355;-83
2021/12/11 02:08:43;;;;;;;26.33;15.03;;;-1.40;99.90;;;;;;4709987;30;20334;-80
2021/12/11 02:11:21;;;;;;;24.33;12.97;;;-1.40;99.90;;;;;;4684225;30;20368;-80
2021/12/11 02:13:51;;;;;;;24.97;14.07;;;-1.40;99.90;;;;;;4697037;30;20641;-82
2021/12/11 02:16:25;;;;;;;23.63;13.13;;;-1.40;99.90;;;;;;4709360;30;20422;-83
2021/12/11 02:18:57;;;;;;;21.60;12.50;;;-1.40;99.90;;;;;;4701541;30;20294;-81
2021/12/11 02:21:29;;;;;;;26.60;13.17;;;-1.50;99.90;;;;;;4708585;30;20347;-83
2021/12/11 02:24:03;;;;;;;24.85;13.15;;;-1.50;99.90;;;;;;4708307;30;20443;-83
2021/12/11 02:26:32;;;;;;;20.90;12.27;;;-1.50;99.90;;;;;;4690872;30;20052;-83
2021/12/11 02:29:28;;;;;;;22.63;11.87;;;-1.50;99.90;;;;;;4708386;30;20319;-83
2021/12/11 02:32:26;;;;;;;22.60;12.37;;;-1.50;99.90;;;;;;4694952;30;20372;-83
2021/12/11 02:35:10;;;;;;;19.70;11.37;;;-1.50;99.90;;;;;;4703240;30;20304;-83
2021/12/11 02:37:44;;;;;;;22.23;11.67;;;-1.50;99.90;;;;;;4700471;30;20603;-83
2021/12/11 02:40:16;;;;;;;24.47;12.53;;;-1.60;99.90;;;;;;4707045;30;20299;-80
2021/12/11 02:42:51;;;;;;;20.38;11.77;;;-1.50;99.90;;;;;;4706204;30;20316;-81
2021/12/11 02:45:36;;;;;;;21.43;12.20;;;-1.50;99.90;;;;;;4709204;30;20132;-83
2021/12/11 02:48:30;;;;;;;22.37;12.33;;;-1.60;99.90;;;;;;4687039;30;20300;-81
2021/12/11 02:51:24;;;;;;;25.03;12.63;;;-1.50;99.90;;;;;;4688909;30;20292;-82
2021/12/11 02:54:06;;;;;;;21.73;12.73;;;-1.60;99.90;;;;;;4693496;30;20306;-80
2021/12/11 02:56:36;;;;;;;22.35;13.07;;;-1.60;99.90;;;;;;4713850;30;20288;-80
2021/12/11 02:59:14;;;;;;;23.57;13.03;;;-1.70;99.90;;;;;;4699807;30;20057;-81
2021/12/11 03:01:47;;;;;;;23.67;13.10;;;-1.60;99.90;;;;;;4699792;30;20302;-83
2021/12/11 03:04:31;;;;;;;25.33;12.80;;;-1.60;99.90;;;;;;4704916;30;20362;-80
2021/12/11 03:07:01;;;;;;;23.50;13.90;;;-1.70;99.90;;;;;;4694159;30;20844;-81
2021/12/11 03:09:29;;;;;;;24.67;13.27;;;-1.60;99.90;;;;;;4693710;30;20299;-81
2021/12/11 03:11:57;;;;;;;23.80;14.07;;;-1.70;99.90;;;;;;4689504;30;20377;-83
2021/12/11 03:14:24;;;;;;;21.37;12.93;;;-1.70;99.90;;;;;;4686623;30;20304;-83
2021/12/11 03:16:52;;;;;;;23.27;13.13;;;-1.70;99.90;;;;;;4693981;30;20302;-83
2021/12/11 03:19:23;;;;;;;25.70;14.53;;;-1.70;99.90;;;;;;4702376;30;20389;-81
2021/12/11 03:21:50;;;;;;;28.05;14.55;;;-1.70;99.90;;;;;;4702689;30;20292;-81
2021/12/11 03:24:16;;;;;;;28.50;14.60;;;-1.70;99.90;;;;;;4708664;30;20049;-81
2021/12/11 03:26:46;;;;;;;22.27;14.27;;;-1.70;99.90;;;;;;4668436;30;20292;-83
2021/12/11 03:29:12;;;;;;;23.87;13.60;;;-1.60;99.90;;;;;;4697824;30;20840;-83
2021/12/11 03:31:39;;;;;;;23.93;13.27;;;-1.70;99.90;;;;;;4702572;30;20295;-83
2021/12/11 03:34:13;;;;;;;21.53;13.33;;;-1.70;99.90;;;;;;4697942;30;20314;-81
2021/12/11 03:36:40;;;;;;;26.37;13.57;;;-1.60;99.90;;;;;;4707409;30;20300;-81
2021/12/11 03:39:12;;;;;;;22.43;12.97;;;-1.70;99.90;;;;;;4704882;30;20300;-81
2021/12/11 03:41:40;;;;;;;24.77;14.63;;;-1.60;99.90;;;;;;4688752;30;20284;-81
2021/12/11 03:44:08;;;;;;;26.73;14.23;;;-1.70;99.90;;;;;;4712650;30;20288;-81
2021/12/11 03:46:35;;;;;;;23.57;12.90;;;-1.80;99.90;;;;;;4705850;30;20815;-81
2021/12/11 03:49:10;;;;;;;24.07;13.30;;;-1.80;99.90;;;;;;4686703;30;20338;-81
2021/12/11 03:51:39;;;;;;;27.63;13.53;;;-1.80;99.90;;;;;;4711251;30;20296;-80
2021/12/11 03:54:08;;;;;;;32.17;17.47;;;-1.80;99.90;;;;;;4685159;30;20292;-81
2021/12/11 03:56:35;;;;;;;35.20;17.53;;;-1.80;99.90;;;;;;4691047;30;20292;-81
2021/12/11 03:59:07;;;;;;;28.70;15.67;;;-1.70;99.90;;;;;;4689887;30;20299;-81
2021/12/11 04:01:37;;;;;;;26.73;16.27;;;-1.70;99.90;;;;;;4713882;30;20764;-81
2021/12/11 04:04:33;;;;;;;26.10;15.67;;;-1.70;99.90;;;;;;4708727;30;20300;-81
2021/12/11 04:07:00;;;;;;;26.97;15.60;;;-1.70;99.90;;;;;;4682810;30;20303;-81
2021/12/11 04:09:27;;;;;;;28.67;15.77;;;-1.70;99.90;;;;;;4695915;30;20297;-81
2021/12/11 04:11:54;;;;;;;34.33;18.40;;;-1.60;99.90;;;;;;4681658;30;20311;-81
2021/12/11 04:14:28;;;;;;;35.33;17.73;;;-1.60;99.90;;;;;;4700379;30;20311;-81
2021/12/11 04:16:54;;;;;;;29.53;15.87;;;-1.60;99.90;;;;;;4685361;30;20797;-83
2021/12/11 04:19:21;;;;;;;29.47;15.70;;;-1.60;99.90;;;;;;4668609;30;20371;-83
2021/12/11 04:21:48;;;;;;;30.53;16.33;;;-1.60;99.90;;;;;;4705515;30;20793;-83
2021/12/11 04:24:16;;;;;;;27.83;15.27;;;-1.60;99.90;;;;;;4702934;30;20305;-83
2021/12/11 04:26:43;;;;;;;25.90;15.37;;;-1.60;99.90;;;;;;4710879;30;20311;-81
2021/12/11 04:29:09;;;;;;;30.83;16.17;;;-1.60;99.90;;;;;;4710573;30;20805;-81
2021/12/11 04:31:41;;;;;;;26.30;14.70;;;-1.60;99.90;;;;;;4681986;30;20288;-81
2021/12/11 04:34:09;;;;;;;27.90;15.17;;;-1.60;99.90;;;;;;4704257;30;20312;-81
2021/12/11 04:36:43;;;;;;;25.93;14.57;;;-1.60;99.90;;;;;;4699134;30;20303;-81
2021/12/11 04:39:12;;;;;;;26.97;16.07;;;-1.80;99.90;;;;;;4683446;30;20635;-81
2021/12/11 04:41:48;;;;;;;28.83;16.73;;;-1.80;99.90;;;;;;4705902;30;20296;-81
2021/12/11 04:44:27;;;;;;;27.07;15.30;;;-1.70;99.90;;;;;;4690077;30;20295;-83
2021/12/11 04:46:53;;;;;;;32.40;16.37;;;-1.80;99.90;;;;;;4711402;30;20345;-83
2021/12/11 04:49:40;;;;;;;27.30;16.07;;;-1.70;99.90;;;;;;4703791;30;20844;-83
2021/12/11 04:52:55;;;;;;;28.43;16.00;;;-1.70;99.90;;;;;;4689613;30;20083;-83
2021/12/11 04:57:54;;;;;;;29.87;15.87;;;-1.70;99.90;;;;;;4699655;30;20368;-81
2021/12/11 05:00:41;;;;;;;27.77;14.13;;;-1.80;99.90;;;;;;4708519;30;20517;-83
2021/12/11 05:10:48;;;;;;;29.55;15.93;;;-1.90;99.90;;;;;;4711829;30;20708;-80
2021/12/11 05:13:14;;;;;;;23.40;13.63;;;-1.90;99.90;;;;;;4689939;30;20506;-81
2021/12/11 05:15:42;;;;;;;28.10;15.73;;;-1.90;99.90;;;;;;4680537;30;20310;-80
2021/12/11 05:18:15;;;;;;;46.33;21.90;;;-2.00;99.90;;;;;;4709492;30;20363;-79
2021/12/11 05:20:45;;;;;;;35.83;20.67;;;-2.00;99.90;;;;;;4693871;30;20353;-80
2021/12/11 05:23:12;;;;;;;40.93;21.23;;;-1.90;99.90;;;;;;4700342;30;20320;-80
2021/12/11 05:25:38;;;;;;;38.23;19.57;;;-1.80;99.90;;;;;;4695199;30;20318;-80
2021/12/11 05:28:05;;;;;;;34.40;18.87;;;-1.80;99.90;;;;;;4687099;30;20288;-80
2021/12/11 05:30:35;;;;;;;35.27;18.93;;;-1.80;99.90;;;;;;4703418;30;20296;-80
2021/12/11 05:33:01;;;;;;;38.00;17.80;;;-1.80;99.90;;;;;;4707269;30;20328;-80
2021/12/11 05:35:30;;;;;;;32.47;18.63;;;-1.80;99.90;;;;;;4677077;30;20668;-80
2021/12/11 05:37:58;;;;;;;34.93;18.03;;;-1.80;99.90;;;;;;4688396;30;20307;-80
2021/12/11 05:40:26;;;;;;;33.13;17.43;;;-1.80;99.90;;;;;;4695340;30;20335;-81
2021/12/11 05:42:53;;;;;;;36.63;18.23;;;-1.80;99.90;;;;;;4684271;30;20403;-81
2021/12/11 05:45:19;;;;;;;34.17;18.60;;;-1.80;99.90;;;;;;4691147;30;20312;-81
2021/12/11 05:47:45;;;;;;;35.97;18.90;;;-1.80;99.90;;;;;;4712842;30;20292;-81
2021/12/11 05:50:17;;;;;;;33.70;18.07;;;-1.80;99.90;;;;;;4701204;30;20374;-81
2021/12/11 05:52:43;;;;;;;33.95;17.98;;;-1.80;99.90;;;;;;4690082;30;20296;-81
2021/12/11 05:55:14;;;;;;;37.60;20.23;;;-1.80;99.90;;;;;;4708711;30;20084;-80
2021/12/11 05:57:41;;;;;;;31.23;18.03;;;-1.80;99.90;;;;;;4676937;30;20335;-81
2021/12/11 06:00:11;;;;;;;40.83;20.13;;;-1.80;99.90;;;;;;4678609;30;20302;-81
2021/12/11 06:02:37;;;;;;;33.63;18.30;;;-1.80;99.90;;;;;;4702088;30;20313;-81
2021/12/11 06:05:03;;;;;;;37.23;18.67;;;-1.80;99.90;;;;;;4684975;30;20296;-82
2021/12/11 06:07:30;;;;;;;35.63;19.23;;;-1.80;99.90;;;;;;4711638;30;20280;-83
2021/12/11 06:10:01;;;;;;;36.23;19.27;;;-1.80;99.90;;;;;;4694027;30;20304;-83
2021/12/11 06:12:28;;;;;;;36.97;19.17;;;-1.80;99.90;;;;;;4719677;30;20303;-83
2021/12/11 06:14:54;;;;;;;36.47;18.47;;;-1.80;99.90;;;;;;4710646;30;20656;-83
2021/12/11 06:17:24;;;;;;;31.90;16.73;;;-1.80;99.90;;;;;;4667667;30;20375;-81
2021/12/11 06:19:52;;;;;;;31.30;17.10;;;-1.80;99.90;;;;;;4712987;30;20582;-81
2021/12/11 06:22:21;;;;;;;32.67;18.37;;;-1.90;99.90;;;;;;4693748;30;20320;-81
2021/12/11 06:24:47;;;;;;;31.33;18.10;;;-1.80;99.90;;;;;;4694385;30;20303;-81
2021/12/11 06:27:12;;;;;;;33.43;18.77;;;-1.90;99.90;;;;;;4697905;30;20296;-81
2021/12/11 06:29:38;;;;;;;34.27;18.33;;;-1.90;99.90;;;;;;4668935;30;20145;-81
2021/12/11 06:32:04;;;;;;;39.63;18.57;;;-2.00;99.90;;;;;;4697579;30;20085;-82
2021/12/11 06:34:33;;;;;;;33.10;18.40;;;-1.90;99.90;;;;;;4678041;30;20069;-83
2021/12/11 06:37:00;;;;;;;29.77;16.83;;;-1.90;99.90;;;;;;4670279;30;20790;-81
2021/12/11 06:39:25;;;;;;;33.90;19.17;;;-1.90;99.90;;;;;;4706775;30;20300;-80
2021/12/11 06:41:56;;;;;;;33.77;17.30;;;-1.90;99.90;;;;;;4689982;30;20304;-84
2021/12/11 06:44:27;;;;;;;34.23;17.67;;;-1.90;99.90;;;;;;4695789;30;20054;-84
2021/12/11 06:46:58;;;;;;;29.83;16.85;;;-1.90;99.90;;;;;;4684384;30;20291;-84
2021/12/11 06:49:30;;;;;;;29.73;16.40;;;-1.90;99.90;;;;;;4680697;30;20049;-83
2021/12/11 06:51:56;;;;;;;29.55;16.70;;;-1.90;99.90;;;;;;4685088;30;20096;-80
2021/12/11 06:54:22;;;;;;;27.87;16.60;;;-1.90;99.90;;;;;;4687149;30;20060;-81
2021/12/11 06:56:49;;;;;;;33.30;16.87;;;-1.90;99.90;;;;;;4685031;30;20389;-83
2021/12/11 06:59:15;;;;;;;30.13;18.27;;;-2.00;99.90;;;;;;4700218;30;20289;-80
2021/12/11 07:01:42;;;;;;;34.30;17.30;;;-2.00;99.90;;;;;;4702991;30;20785;-84
2021/12/11 07:04:10;;;;;;;35.07;18.57;;;-2.00;99.90;;;;;;4688457;30;20320;-83
2021/12/11 07:06:38;;;;;;;34.10;17.73;;;-1.90;99.90;;;;;;4703414;30;20727;-83
2021/12/11 07:09:07;;;;;;;31.67;17.10;;;-2.00;99.90;;;;;;4687017;30;20622;-80
2021/12/11 07:11:34;;;;;;;31.87;18.43;;;-2.00;99.90;;;;;;4696850;30;20293;-86
2021/12/11 07:14:00;;;;;;;37.10;18.67;;;-2.10;99.90;;;;;;4680706;30;20303;-86
2021/12/11 07:16:26;;;;;;;35.00;18.10;;;-2.00;99.90;;;;;;4682995;30;20292;-82
2021/12/11 07:18:52;;;;;;;36.90;18.00;;;-2.00;99.90;;;;;;4705562;30;21052;-81
2021/12/11 07:21:18;;;;;;;34.50;17.17;;;-2.00;99.90;;;;;;4690129;30;20057;-86
2021/12/11 07:23:48;;;;;;;31.13;17.20;;;-2.00;99.90;;;;;;4693138;30;20085;-86
2021/12/11 07:26:19;;;;;;;29.97;16.30;;;-2.00;99.90;;;;;;4681385;30;20380;-87
2021/12/11 07:28:49;;;;;;;33.20;17.60;;;-2.00;99.90;;;;;;4685108;30;20357;-86
2021/12/11 07:31:16;;;;;;;32.50;17.80;;;-2.00;99.90;;;;;;4699238;30;20350;-86
2021/12/11 07:33:42;;;;;;;33.17;16.73;;;-2.00;99.90;;;;;;4698687;30;20309;-86
2021/12/11 07:36:11;;;;;;;29.90;16.90;;;-2.00;99.90;;;;;;4679630;30;20387;-86
2021/12/11 07:38:37;;;;;;;30.33;16.17;;;-2.00;99.90;;;;;;4691423;30;20369;-86
2021/12/11 07:41:06;;;;;;;33.27;17.30;;;-2.00;99.90;;;;;;4683733;30;20620;-82
2021/12/11 07:43:33;;;;;;;31.10;16.80;;;-2.00;99.90;;;;;;4677514;30;20403;-82
2021/12/11 07:46:03;;;;;;;34.13;17.57;;;-2.00;99.90;;;;;;4683630;30;20314;-82
2021/12/11 07:48:31;;;;;;;32.53;17.57;;;-2.00;99.90;;;;;;4688652;30;20785;-82
2021/12/11 07:50:58;;;;;;;29.90;16.37;;;-2.00;99.90;;;;;;4695561;30;20836;-82
2021/12/11 07:53:24;;;;;;;37.13;17.90;;;-2.00;99.90;;;;;;4699094;30;20289;-81
2021/12/11 07:55:51;;;;;;;35.80;18.50;;;-1.90;99.90;;;;;;4682787;30;20355;-86
2021/12/11 07:58:17;;;;;;;27.17;16.40;;;-2.00;99.90;;;;;;4702803;30;20121;-84
2021/12/11 08:00:44;;;;;;;36.53;17.63;;;-2.00;99.90;;;;;;4695810;30;20848;-85
2021/12/11 08:03:12;;;;;;;34.30;17.97;;;-2.00;99.90;;;;;;4699184;30;20316;-85
2021/12/11 08:05:40;;;;;;;37.97;20.40;;;-2.00;99.90;;;;;;4681708;30;20292;-85
2021/12/11 08:08:09;;;;;;;37.67;19.57;;;-2.00;99.90;;;;;;4687374;30;20358;-85
2021/12/11 08:10:38;;;;;;;38.43;20.77;;;-2.00;99.90;;;;;;4692027;30;20664;-81
2021/12/11 08:13:05;;;;;;;35.73;19.23;;;-2.00;99.90;;;;;;4680244;30;20353;-81
2021/12/11 08:15:31;;;;;;;38.30;19.57;;;-1.90;99.90;;;;;;4697818;30;20318;-81
2021/12/11 08:17:57;;;;;;;31.50;18.43;;;-1.90;99.90;;;;;;4700680;30;20342;-85
2021/12/11 08:20:26;;;;;;;35.93;18.83;;;-1.70;99.90;;;;;;4676946;30;20357;-85
2021/12/11 08:22:53;;;;;;;40.83;19.90;;;-1.80;99.90;;;;;;4686375;30;20098;-84
2021/12/11 08:25:21;;;;;;;38.70;20.47;;;-1.70;99.90;;;;;;4698841;30;20662;-84
2021/12/11 08:27:48;;;;;;;38.57;19.43;;;-1.70;99.90;;;;;;4705709;30;20712;-84
2021/12/11 08:30:14;;;;;;;37.70;18.57;;;-1.60;99.90;;;;;;4707508;30;20344;-84
2021/12/11 08:32:40;;;;;;;40.87;21.00;;;-1.60;99.90;;;;;;4687574;30;20371;-84
2021/12/11 08:35:12;;;;;;;41.37;21.63;;;-1.50;99.90;;;;;;4692662;30;20295;-84
2021/12/11 08:37:41;;;;;;;39.88;20.90;;;-1.50;99.90;;;;;;4693575;30;20346;-84
2021/12/11 08:40:11;;;;;;;38.50;21.00;;;-1.30;99.90;;;;;;4694380;30;20093;-82
2021/12/11 08:42:37;;;;;;;37.20;20.70;;;-1.30;99.90;;;;;;4695328;30;20316;-83
2021/12/11 08:45:09;;;;;;;38.13;21.40;;;-1.20;99.90;;;;;;4697584;30;20315;-79
2021/12/11 08:47:39;;;;;;;39.28;20.40;;;-1.20;99.90;;;;;;4703776;30;20310;-79
2021/12/11 08:50:11;;;;;;;38.43;20.73;;;-1.10;99.90;;;;;;4698966;30;20136;-79
2021/12/11 08:52:40;;;;;;;47.13;21.60;;;-1.10;99.90;;;;;;4697846;30;20391;-80
2021/12/11 08:55:11;;;;;;;44.87;22.30;;;-1.00;99.90;;;;;;4704446;30;20299;-80
2021/12/11 08:57:39;;;;;;;47.27;23.33;;;-1.00;99.90;;;;;;4704643;30;20328;-80
2021/12/11 09:00:18;;;;;;;45.93;23.57;;;-1.00;99.90;;;;;;4703657;30;20299;-79
2021/12/11 09:03:03;;;;;;;41.87;23.97;;;-0.90;99.90;;;;;;4702162;30;20658;-79
2021/12/11 09:05:38;;;;;;;42.70;22.77;;;-0.80;99.90;;;;;;4705886;30;20314;-79
2021/12/11 09:08:31;;;;;;;39.73;23.80;;;-0.70;99.90;;;;;;4706778;30;20323;-79
2021/12/11 09:11:11;;;;;;;42.97;23.07;;;-0.70;99.90;;;;;;4705536;30;20354;-79
2021/12/11 09:13:50;;;;;;;41.63;24.80;;;-0.60;99.90;;;;;;4695288;30;20336;-79
2021/12/11 09:16:27;;;;;;;44.43;23.33;;;-0.60;99.90;;;;;;4684403;30;20316;-79
2021/12/11 09:19:10;;;;;;;46.53;24.13;;;-0.50;99.90;;;;;;4699349;30;20307;-79
2021/12/11 09:21:40;;;;;;;44.43;23.80;;;-0.40;99.90;;;;;;4700545;30;20308;-80
2021/12/11 09:24:10;;;;;;;46.50;24.50;;;-0.30;99.90;;;;;;4701978;30;20399;-79
2021/12/11 09:26:45;;;;;;;44.60;24.03;;;-0.30;99.90;;;;;;4695403;30;20297;-79
2021/12/11 09:29:32;;;;;;;44.40;22.80;;;-0.20;99.90;;;;;;4684245;30;20383;-79
2021/12/11 09:32:23;;;;;;;38.83;21.87;;;-0.10;99.90;;;;;;4689929;30;20814;-79
2021/12/11 09:35:06;;;;;;;48.03;25.13;;;0.00;99.90;;;;;;4698303;30;20310;-78
2021/12/11 09:37:33;;;;;;;48.83;25.00;;;0.10;99.90;;;;;;4691747;30;20647;-79
2021/12/11 09:40:15;;;;;;;45.80;25.97;;;0.10;99.90;;;;;;4694151;30;20642;-79
2021/12/11 09:42:40;;;;;;;53.05;26.27;;;0.30;99.90;;;;;;4695757;30;20377;-79
2021/12/11 09:45:21;;;;;;;47.97;25.73;;;0.40;99.90;;;;;;4695590;30;20512;-79
2021/12/11 09:48:00;;;;;;;51.90;27.93;;;0.40;99.90;;;;;;4690897;30;20129;-79
2021/12/11 09:50:43;;;;;;;50.57;28.30;;;0.60;99.90;;;;;;4716895;30;21092;-79
2021/12/11 09:53:11;;;;;;;53.20;28.07;;;0.70;99.90;;;;;;4692452;30;20292;-79
2021/12/11 09:55:37;;;;;;;57.73;28.40;;;0.70;99.90;;;;;;4688322;30;20638;-79
2021/12/11 09:58:09;;;;;;;54.63;27.37;;;0.80;99.90;;;;;;4698610;30;20298;-79
2021/12/11 10:00:43;;;;;;;50.40;26.55;;;0.90;99.90;;;;;;4698840;30;20299;-79
2021/12/11 10:03:11;;;;;;;61.60;34.13;;;1.00;99.90;;;;;;4708736;30;20053;-80
2021/12/11 10:05:46;;;;;;;68.70;35.60;;;1.10;99.90;;;;;;4703753;30;20288;-79
2021/12/11 10:08:29;;;;;;;52.03;29.67;;;1.10;99.90;;;;;;4706064;30;20288;-81
2021/12/11 10:11:15;;;;;;;49.47;26.57;;;1.10;99.90;;;;;;4689297;30;20296;-79
2021/12/11 10:13:45;;;;;;;44.57;26.20;;;1.20;99.90;;;;;;4695412;30;20375;-79
2021/12/11 10:16:13;;;;;;;54.70;26.43;;;1.20;99.90;;;;;;4695553;30;20307;-79
2021/12/11 10:18:40;;;;;;;51.90;26.40;;;1.20;99.90;;;;;;4704370;30;20379;-79
2021/12/11 10:21:18;;;;;;;44.10;24.63;;;1.30;99.90;;;;;;4688584;30;20660;-79
2021/12/11 10:23:47;;;;;;;50.83;26.40;;;1.30;99.90;;;;;;4691654;30;20389;-79
2021/12/11 10:26:15;;;;;;;49.90;27.53;;;1.40;99.90;;;;;;4704355;30;20796;-79
2021/12/11 10:28:45;;;;;;;46.63;26.67;;;1.40;99.90;;;;;;4671849;30;20365;-79
2021/12/11 10:31:17;;;;;;;44.23;25.97;;;1.50;99.90;;;;;;4702375;30;20301;-79
2021/12/11 10:33:43;;;;;;;53.83;27.50;;;1.50;99.90;;;;;;4699372;30;20312;-79
2021/12/11 10:36:13;;;;;;;49.67;27.00;;;1.50;99.90;;;;;;4690282;30;20364;-79
2021/12/11 10:38:41;;;;;;;53.27;26.73;;;1.60;99.90;;;;;;4699920;30;20053;-78
2021/12/11 10:41:10;;;;;;;50.13;27.87;;;1.70;99.90;;;;;;4688501;30;20373;-78
2021/12/11 10:43:53;;;;;;;50.80;27.83;;;1.60;99.90;;;;;;4702859;30;20377;-79
2021/12/11 10:46:26;;;;;;;46.50;26.53;;;1.70;99.90;;;;;;4683568;30;20645;-79
2021/12/11 10:48:53;;;;;;;45.10;26.03;;;1.70;99.90;;;;;;4688009;30;20351;-79
2021/12/11 10:51:25;;;;;;;45.13;27.10;;;1.70;99.90;;;;;;4674544;30;20292;-78
2021/12/11 10:53:52;;;;;;;50.53;27.33;;;1.80;99.90;;;;;;4700981;30;20637;-79
2021/12/11 10:56:20;;;;;;;45.83;27.63;;;1.80;99.90;;;;;;4681354;30;20058;-79
2021/12/11 10:58:52;;;;;;;47.97;27.33;;;1.90;99.90;;;;;;4700624;30;20303;-79
2021/12/11 11:01:29;;;;;;;50.55;29.17;;;1.90;99.90;;;;;;4705247;30;20421;-79
2021/12/11 11:04:03;;;;;;;49.20;27.90;;;2.00;99.90;;;;;;4698218;30;20101;-79
2021/12/11 11:06:29;;;;;;;46.80;26.77;;;2.00;99.90;;;;;;4670317;30;20301;-79
2021/12/11 11:08:56;;;;;;;49.43;27.70;;;2.10;99.90;;;;;;4700092;30;20099;-79
2021/12/11 11:11:26;;;;;;;45.43;25.57;;;2.10;99.90;;;;;;4674797;30;20046;-79
2021/12/11 11:13:52;;;;;;;51.63;28.90;;;2.20;99.90;;;;;;4693729;30;20503;-79
2021/12/11 11:16:19;;;;;;;45.37;26.13;;;2.20;99.90;;;;;;4668950;30;20663;-78
2021/12/11 11:18:47;;;;;;;52.50;28.10;;;2.30;99.90;;;;;;4696431;30;20300;-78
2021/12/11 11:21:27;;;;;;;51.20;27.80;;;2.30;99.90;;;;;;4697576;30;20463;-77
2021/12/11 11:23:54;;;;;;;48.00;26.43;;;2.40;99.90;;;;;;4694860;30;20514;-78
2021/12/11 11:26:28;;;;;;;51.40;26.70;;;2.40;99.90;;;;;;4685647;30;20370;-77
2021/12/11 11:28:55;;;;;;;49.33;28.17;;;2.40;99.90;;;;;;4689282;30;20059;-78
2021/12/11 11:31:26;;;;;;;49.23;27.53;;;2.40;99.90;;;;;;4697446;30;20120;-77
2021/12/11 11:33:52;;;;;;;47.33;26.43;;;2.50;99.90;;;;;;4698017;30;20153;-78
2021/12/11 11:36:21;;;;;;;48.17;26.27;;;2.40;99.90;;;;;;4688133;30;20603;-77
2021/12/11 11:38:52;;;;;;;53.83;29.07;;;2.60;99.90;;;;;;4688348;30;20318;-78
2021/12/11 11:41:23;;;;;;;51.67;28.50;;;2.60;99.90;;;;;;4700466;30;20115;-78
2021/12/11 11:43:50;;;;;;;47.95;25.85;;;2.70;99.90;;;;;;4711884;30;20387;-78
2021/12/11 11:46:17;;;;;;;47.37;26.90;;;2.70;99.90;;;;;;4683283;30;20041;-78
2021/12/11 11:48:49;;;;;;;51.63;28.50;;;2.90;99.90;;;;;;4682039;30;20053;-77
2021/12/11 11:51:45;;;;;;;47.80;27.83;;;2.90;99.90;;;;;;4688586;30;20411;-78
2021/12/11 11:54:13;;;;;;;46.37;27.20;;;3.00;99.90;;;;;;4689940;30;20499;-77
2021/12/11 11:56:46;;;;;;;51.40;27.57;;;3.00;99.90;;;;;;4676541;30;20049;-78
2021/12/11 11:59:12;;;;;;;49.23;28.33;;;3.10;99.90;;;;;;4688979;30;20104;-79
2021/12/11 12:01:43;;;;;;;51.60;27.70;;;3.30;99.90;;;;;;4700718;30;20057;-78
2021/12/11 12:04:15;;;;;;;45.53;25.73;;;3.30;99.90;;;;;;4703555;30;20045;-78
2021/12/11 12:06:41;;;;;;;47.33;25.58;;;3.30;99.90;;;;;;4685797;30;20108;-78
2021/12/11 12:09:10;;;;;;;55.07;27.13;;;3.40;99.90;;;;;;4697730;30;20076;-78
2021/12/11 12:11:38;;;;;;;47.50;26.27;;;3.40;99.90;;;;;;4709746;30;20084;-78
2021/12/11 12:14:12;;;;;;;44.10;24.97;;;3.50;99.90;;;;;;4686508;30;20469;-78
2021/12/11 12:16:40;;;;;;;48.57;25.27;;;3.50;99.90;;;;;;4694440;30;20054;-78
2021/12/11 12:19:07;;;;;;;43.33;25.00;;;3.50;99.90;;;;;;4713939;30;20049;-78
2021/12/11 12:21:35;;;;;;;49.33;25.07;;;3.50;99.90;;;;;;4684319;30;20084;-78
2021/12/11 12:24:00;;;;;;;45.27;25.77;;;3.60;99.90;;;;;;4707183;30;20063;-78
2021/12/11 12:26:28;;;;;;;53.63;26.43;;;3.60;99.90;;;;;;4691872;30;20045;-78
2021/12/11 12:28:59;;;;;;;44.50;24.60;;;3.70;99.90;;;;;;4706287;30;20057;-78
2021/12/11 12:31:29;;;;;;;45.20;24.70;;;3.70;99.90;;;;;;4686530;30;20045;-78
2021/12/11 12:33:55;;;;;;;50.00;25.17;;;3.80;99.90;;;;;;4687933;30;20498;-78
2021/12/11 12:36:21;;;;;;;48.30;24.00;;;4.00;99.90;;;;;;4694403;30;20523;-78
2021/12/11 12:38:49;;;;;;;43.13;23.23;;;4.00;99.90;;;;;;4698506;30;20056;-78
2021/12/11 12:41:17;;;;;;;47.30;23.77;;;4.10;99.90;;;;;;4699374;30;20103;-78
2021/12/11 12:46:36;;;;;;;43.73;22.40;;;4.00;99.90;;;;;;4696097;30;20139;-78
2021/12/11 12:49:03;;;;;;;44.53;23.03;;;4.00;99.90;;;;;;4700547;30;20054;-78
2021/12/11 12:51:31;;;;;;;39.47;22.87;;;4.00;99.90;;;;;;4698169;30;20053;-78
2021/12/11 12:53:57;;;;;;;46.63;23.67;;;4.00;99.90;;;;;;4685473;30;20053;-78
2021/12/11 12:56:28;;;;;;;40.37;22.10;;;4.00;99.90;;;;;;4704139;30;20049;-78
2021/12/11 12:59:02;;;;;;;39.47;23.53;;;3.90;99.90;;;;;;4697404;30;20045;-78
2021/12/11 13:01:42;;;;;;;42.37;22.43;;;3.90;99.90;;;;;;4695760;30;20121;-78
2021/12/11 13:04:11;;;;;;;46.00;23.67;;;3.90;99.90;;;;;;4695260;30;20119;-78